Time;durP1;ratioP1;P1;durP2;ratioP2;P2;SDS_P1;SDS_P2;PMS_P1;PMS_P2;Temp;Humidity;BMP_temperature;BMP_pressure;BME280_temperature;BME280_humidity;BME280_pressure;Samples;Min_cycle;Max_cycle;Signal;HPM_P1;HPM_P2
2023/10/05 00:03:44;;;;;;;2.17;1.00;;;23.00;48.70;;;;;;5031748;28;20163;-65
2023/10/05 00:06:17;;;;;;;2.80;1.00;;;23.00;48.80;;;;;;5024191;28;20139;-65
2023/10/05 00:08:47;;;;;;;2.00;1.00;;;23.00;48.80;;;;;;5038179;28;20036;-66
2023/10/05 00:11:23;;;;;;;2.88;1.13;;;22.90;48.70;;;;;;5040236;28;20290;-65
2023/10/05 00:14:01;;;;;;;2.67;1.00;;;22.90;48.80;;;;;;5031477;28;20036;-66
2023/10/05 00:16:37;;;;;;;1.85;0.85;;;22.90;48.80;;;;;;5036557;28;20447;-64
2023/10/05 00:19:12;;;;;;;2.85;1.00;;;22.90;48.80;;;;;;5037997;28;20028;-64
2023/10/05 00:21:48;;;;;;;1.73;0.90;;;22.90;48.80;;;;;;5030824;28;20021;-64
2023/10/05 00:24:18;;;;;;;2.58;1.15;;;22.90;48.90;;;;;;5031281;28;20504;-63
2023/10/05 00:26:49;;;;;;;2.90;0.90;;;22.90;48.90;;;;;;5036241;28;20028;-64
2023/10/05 00:29:29;;;;;;;1.55;0.80;;;22.90;48.90;;;;;;5037467;28;20115;-64
2023/10/05 00:31:59;;;;;;;2.67;1.15;;;22.90;49.00;;;;;;5023215;28;20038;-66
2023/10/05 00:34:27;;;;;;;2.67;1.20;;;22.90;49.00;;;;;;5013259;28;20353;-65
2023/10/05 00:36:57;;;;;;;3.13;1.05;;;22.90;49.00;;;;;;5016504;28;20467;-64
2023/10/05 00:39:24;;;;;;;2.75;1.20;;;22.90;49.00;;;;;;5013086;28;20074;-65
2023/10/05 00:44:30;;;;;;;3.03;1.00;;;22.90;49.10;;;;;;5041149;28;20041;-64
2023/10/05 00:47:00;;;;;;;1.60;1.02;;;22.90;49.10;;;;;;5015535;28;20076;-64
2023/10/05 00:50:10;;;;;;;1.90;0.80;;;22.90;49.20;;;;;;5014984;28;20039;-66
2023/10/05 00:52:30;;;;;;;2.17;0.80;;;22.90;49.20;;;;;;5011251;28;20045;-65
2023/10/05 00:54:59;;;;;;;1.90;0.75;;;22.90;49.30;;;;;;5009486;28;20108;-63
2023/10/05 00:57:26;;;;;;;2.83;1.27;;;22.90;49.30;;;;;;5013523;28;20081;-64
2023/10/05 01:02:25;;;;;;;3.55;0.90;;;22.90;49.40;;;;;;5019633;28;20484;-63
2023/10/05 01:05:01;;;;;;;1.77;0.85;;;22.90;49.40;;;;;;5018007;28;20021;-65
2023/10/05 01:14:58;;;;;;;1.92;0.95;;;22.90;49.50;;;;;;5015967;28;20030;-63
2023/10/05 01:17:26;;;;;;;1.83;0.93;;;22.80;49.50;;;;;;5015322;28;20025;-66
2023/10/05 01:19:57;;;;;;;1.88;0.95;;;22.90;49.50;;;;;;5015127;28;20098;-65
2023/10/05 01:22:24;;;;;;;2.22;1.00;;;22.90;49.60;;;;;;5012694;28;20022;-64
2023/10/05 01:24:51;;;;;;;2.53;1.10;;;22.90;49.60;;;;;;5019038;28;20136;-64
2023/10/05 01:27:18;;;;;;;1.42;0.85;;;22.90;49.60;;;;;;5014243;28;20636;-64
2023/10/05 01:29:44;;;;;;;1.85;0.90;;;22.90;49.70;;;;;;5014596;28;20408;-64
2023/10/05 01:32:10;;;;;;;1.98;1.00;;;22.80;49.50;;;;;;5013405;28;20087;-66
2023/10/05 01:34:37;;;;;;;1.67;0.90;;;22.90;49.60;;;;;;5001299;28;20414;-65
2023/10/05 01:37:04;;;;;;;2.50;0.90;;;22.90;49.60;;;;;;5002946;28;20034;-65
2023/10/05 01:39:35;;;;;;;3.20;1.15;;;22.90;49.70;;;;;;5000989;28;20025;-64
2023/10/05 01:42:05;;;;;;;3.05;1.27;;;22.80;49.60;;;;;;4994554;28;20030;-64
2023/10/05 01:44:37;;;;;;;1.98;0.90;;;22.80;49.60;;;;;;5009274;28;20046;-66
2023/10/05 01:47:03;;;;;;;2.55;1.02;;;22.80;49.60;;;;;;5002959;28;20453;-65
2023/10/05 01:49:31;;;;;;;1.70;1.00;;;22.80;49.60;;;;;;4996609;28;20026;-64
2023/10/05 01:51:57;;;;;;;3.00;0.90;;;22.80;49.70;;;;;;5003251;28;20442;-64
2023/10/05 01:54:26;;;;;;;2.28;0.90;;;22.80;49.70;;;;;;4994903;28;20089;-64
2023/10/05 01:56:55;;;;;;;1.73;0.95;;;22.80;49.70;;;;;;4995925;28;20049;-64
2023/10/05 01:59:24;;;;;;;2.33;1.00;;;22.80;49.70;;;;;;5002186;28;20022;-65
2023/10/05 02:01:53;;;;;;;2.33;1.00;;;22.80;49.70;;;;;;4996304;28;20041;-66
2023/10/05 02:04:22;;;;;;;2.50;0.90;;;22.80;49.70;;;;;;5025803;28;20128;-64
2023/10/05 02:06:49;;;;;;;2.03;1.10;;;22.80;50.30;;;;;;4997721;28;20325;-64
2023/10/05 02:09:19;;;;;;;1.75;1.10;;;22.80;49.70;;;;;;5003514;28;20026;-65
2023/10/05 02:11:49;;;;;;;2.38;0.88;;;22.80;49.70;;;;;;4993602;28;20092;-63
2023/10/05 02:14:16;;;;;;;1.67;0.82;;;22.80;49.70;;;;;;4998136;28;20491;-65
2023/10/05 02:16:50;;;;;;;4.30;1.38;;;22.80;49.70;;;;;;4993813;28;20030;-65
2023/10/05 02:19:16;;;;;;;1.52;0.88;;;22.80;49.70;;;;;;4996476;28;20366;-63
2023/10/05 02:21:45;;;;;;;1.70;0.95;;;22.80;49.60;;;;;;4996852;28;20041;-63
2023/10/05 02:24:17;;;;;;;1.98;0.80;;;22.80;49.70;;;;;;4996194;28;20121;-65
2023/10/05 02:29:27;;;;;;;1.20;0.65;;;22.70;49.60;;;;;;5001291;28;20030;-64
2023/10/05 02:37:36;;;;;;;;;;;22.80;49.70;;;;;;4969413;28;20071;-65
2023/10/05 02:40:08;;;;;;;2.63;0.98;;;22.80;49.70;;;;;;4996417;28;19909;-66
2023/10/05 02:42:35;;;;;;;2.58;1.00;;;22.70;49.70;;;;;;4992362;28;21038;-65
2023/10/05 02:45:06;;;;;;;3.05;1.00;;;22.70;49.70;;;;;;4996976;28;20022;-65
2023/10/05 02:47:32;;;;;;;3.35;1.10;;;22.80;49.80;;;;;;4999625;28;20034;-65
2023/10/05 02:50:05;;;;;;;2.28;0.80;;;22.80;49.80;;;;;;4996758;28;20141;-65
2023/10/05 02:52:34;;;;;;;3.10;1.33;;;22.70;49.70;;;;;;4995877;28;20026;-64
2023/10/05 02:55:00;;;;;;;1.38;0.80;;;22.80;49.80;;;;;;4987949;28;20143;-66
2023/10/05 02:57:26;;;;;;;2.83;1.00;;;22.70;49.70;;;;;;4997689;28;20148;-66
2023/10/05 02:59:52;;;;;;;2.00;1.05;;;22.70;49.80;;;;;;4999502;28;20030;-64
2023/10/05 03:02:18;;;;;;;3.13;1.00;;;22.70;49.80;;;;;;4997952;28;20038;-63
2023/10/05 03:04:45;;;;;;;3.13;0.95;;;22.70;49.80;;;;;;4998508;28;20030;-66
2023/10/05 03:07:18;;;;;;;2.25;0.95;;;22.70;49.80;;;;;;4996757;28;20542;-64
2023/10/05 03:09:46;;;;;;;2.58;1.00;;;22.70;49.80;;;;;;5004004;28;20030;-66
2023/10/05 03:12:13;;;;;;;2.17;1.08;;;22.70;49.80;;;;;;5003806;28;20095;-65
2023/10/05 03:14:43;;;;;;;1.58;0.95;;;22.70;49.80;;;;;;5004210;28;20033;-64
2023/10/05 03:17:13;;;;;;;1.77;0.93;;;22.70;49.80;;;;;;4996500;28;20102;-64
2023/10/05 03:19:40;;;;;;;1.67;1.00;;;22.70;49.80;;;;;;4999314;28;20068;-65
2023/10/05 03:22:11;;;;;;;2.15;1.00;;;22.70;49.90;;;;;;5009571;28;20024;-65
2023/10/05 03:24:38;;;;;;;2.60;1.00;;;22.70;49.90;;;;;;5008214;28;20085;-65
2023/10/05 03:27:05;;;;;;;2.03;0.88;;;22.70;49.90;;;;;;5014961;28;20044;-66
2023/10/05 03:29:35;;;;;;;1.63;0.93;;;22.70;49.90;;;;;;5023849;28;20446;-63
2023/10/05 03:32:13;;;;;;;1.75;0.77;;;22.70;49.90;;;;;;5004483;28;20030;-63
2023/10/05 03:34:42;;;;;;;1.70;0.90;;;22.70;49.90;;;;;;4971356;28;1218134;-64
2023/10/05 03:37:15;;;;;;;2.15;1.00;;;22.70;49.90;;;;;;5027322;28;20360;-63
2023/10/05 03:39:52;;;;;;;2.40;0.95;;;22.70;49.90;;;;;;5004565;28;20095;-65
2023/10/05 03:42:21;;;;;;;2.80;1.20;;;22.70;50.20;;;;;;5027562;28;20429;-64
2023/10/05 03:45:00;;;;;;;2.80;0.90;;;22.70;49.90;;;;;;5026640;28;20022;-65
2023/10/05 03:47:27;;;;;;;1.98;0.98;;;22.70;49.90;;;;;;5022773;28;20103;-63
2023/10/05 03:49:56;;;;;;;2.25;1.00;;;22.70;50.00;;;;;;5019391;28;20112;-63
2023/10/05 03:52:29;;;;;;;2.85;1.10;;;22.70;49.90;;;;;;5023460;28;20118;-64
2023/10/05 03:55:10;;;;;;;2.78;1.00;;;22.70;50.00;;;;;;5025465;28;20033;-65
2023/10/05 03:57:41;;;;;;;2.20;0.85;;;22.70;50.00;;;;;;5019290;28;20310;-66
2023/10/05 04:02:46;;;;;;;1.67;0.80;;;22.70;50.00;;;;;;5024412;28;20056;-64
2023/10/05 04:05:12;;;;;;;2.67;1.02;;;22.70;50.00;;;;;;5022898;28;20029;-64
2023/10/05 04:07:39;;;;;;;2.70;1.00;;;22.70;50.00;;;;;;5021524;28;20172;-64
2023/10/05 04:10:07;;;;;;;2.63;1.00;;;22.70;50.00;;;;;;5024258;28;20029;-65
2023/10/05 04:12:34;;;;;;;2.90;1.20;;;22.70;50.00;;;;;;5027321;28;20029;-64
2023/10/05 04:15:00;;;;;;;3.08;1.00;;;22.70;50.10;;;;;;5026778;28;20409;-64
2023/10/05 04:17:27;;;;;;;2.83;1.20;;;22.60;50.00;;;;;;5019332;28;20160;-63
2023/10/05 04:19:53;;;;;;;1.52;0.82;;;22.60;50.00;;;;;;5026554;28;20032;-63
2023/10/05 04:22:19;;;;;;;1.92;0.80;;;22.60;50.00;;;;;;5027964;28;20117;-65
2023/10/05 04:24:45;;;;;;;1.75;0.68;;;22.60;50.00;;;;;;5028126;28;20026;-63
2023/10/05 04:27:12;;;;;;;1.92;1.00;;;22.60;50.00;;;;;;5040980;28;20032;-66
2023/10/05 04:29:38;;;;;;;2.90;1.27;;;22.60;50.00;;;;;;5025502;28;20042;-63
2023/10/05 04:32:07;;;;;;;2.63;0.80;;;22.60;50.00;;;;;;5024697;28;20040;-66
2023/10/05 04:34:33;;;;;;;2.47;0.80;;;22.60;50.00;;;;;;5036541;28;21051;-65
2023/10/05 04:36:59;;;;;;;2.78;0.90;;;22.60;50.00;;;;;;5043406;28;20075;-64
2023/10/05 04:39:30;;;;;;;3.42;1.10;;;22.60;50.00;;;;;;5046644;28;20021;-67
2023/10/05 04:42:10;;;;;;;2.55;0.95;;;22.60;50.00;;;;;;5046327;28;20034;-64
2023/10/05 04:44:37;;;;;;;2.53;0.93;;;22.60;50.00;;;;;;5046864;28;20043;-64
2023/10/05 04:47:04;;;;;;;2.38;0.90;;;22.60;50.10;;;;;;5046611;28;20024;-63
2023/10/05 04:49:31;;;;;;;3.13;0.80;;;22.60;50.00;;;;;;5046384;28;20045;-65
2023/10/05 04:51:59;;;;;;;3.38;1.27;;;22.60;50.00;;;;;;5047443;28;20041;-63
2023/10/05 04:54:31;;;;;;;3.28;1.20;;;22.60;50.00;;;;;;5045773;28;20043;-65
2023/10/05 04:57:07;;;;;;;2.30;0.90;;;22.60;50.00;;;;;;5045549;28;20431;-64
2023/10/05 05:02:18;;;;;;;2.97;0.80;;;22.60;50.00;;;;;;5044722;28;20424;-64
2023/10/05 05:07:13;;;;;;;1.00;0.68;;;22.60;50.00;;;;;;5042371;28;20589;-63
2023/10/05 05:09:41;;;;;;;2.40;0.80;;;22.60;50.00;;;;;;5017602;28;20037;-64
2023/10/05 05:12:16;;;;;;;2.00;0.95;;;22.60;50.10;;;;;;5045602;28;20032;-64
2023/10/05 05:14:44;;;;;;;3.08;1.00;;;22.60;50.10;;;;;;5045060;28;20045;-64
2023/10/05 05:17:19;;;;;;;2.97;0.90;;;22.60;50.00;;;;;;5042951;28;20029;-65
2023/10/05 05:19:46;;;;;;;4.15;1.35;;;22.60;50.10;;;;;;5041854;28;20436;-65
2023/10/05 05:22:13;;;;;;;2.75;1.17;;;22.60;50.10;;;;;;5015681;28;20029;-66
2023/10/05 05:24:40;;;;;;;2.55;1.02;;;22.60;50.10;;;;;;5042522;28;20077;-63
2023/10/05 05:29:45;;;;;;;2.75;0.93;;;22.60;50.10;;;;;;5045029;28;20031;-64
2023/10/05 05:32:11;;;;;;;1.30;0.90;;;22.60;50.70;;;;;;5044996;28;20064;-66
2023/10/05 05:34:41;;;;;;;2.80;1.27;;;22.50;50.00;;;;;;5043608;28;20067;-65
2023/10/05 05:37:08;;;;;;;3.15;1.23;;;22.50;50.00;;;;;;5023838;28;20025;-63
2023/10/05 05:39:43;;;;;;;4.82;1.52;;;22.50;50.00;;;;;;5046517;28;20393;-66
2023/10/05 05:42:15;;;;;;;2.65;1.38;;;22.50;50.10;;;;;;5044998;28;20120;-63
2023/10/05 05:44:41;;;;;;;2.30;1.23;;;22.60;50.10;;;;;;5046566;28;20459;-65
2023/10/05 05:47:13;;;;;;;3.25;1.17;;;22.60;50.10;;;;;;5044844;28;20482;-65
2023/10/05 05:49:46;;;;;;;2.33;0.82;;;22.50;50.10;;;;;;5042593;28;20436;-63
2023/10/05 05:52:13;;;;;;;2.90;1.02;;;22.50;50.10;;;;;;5041778;28;20682;-65
2023/10/05 05:54:41;;;;;;;2.55;1.20;;;22.50;50.10;;;;;;5035662;28;20322;-63
2023/10/05 05:57:07;;;;;;;2.35;1.25;;;22.50;50.10;;;;;;5037610;28;20037;-63
2023/10/05 05:59:41;;;;;;;2.78;1.13;;;22.50;50.10;;;;;;5034342;28;20081;-64
2023/10/05 06:02:13;;;;;;;2.97;1.20;;;22.50;50.20;;;;;;5036989;28;20063;-66
2023/10/05 06:04:40;;;;;;;3.22;1.40;;;22.60;50.20;;;;;;5037518;28;20032;-64
2023/10/05 06:07:13;;;;;;;2.83;0.98;;;22.50;50.20;;;;;;5019570;28;20134;-63
2023/10/05 06:09:43;;;;;;;1.35;0.85;;;22.50;50.20;;;;;;5039999;28;20052;-64
2023/10/05 06:12:12;;;;;;;1.90;0.98;;;22.50;50.20;;;;;;5035498;28;20053;-65
2023/10/05 06:14:44;;;;;;;2.83;1.40;;;22.50;50.20;;;;;;5038077;28;20041;-65
2023/10/05 06:17:10;;;;;;;1.85;0.88;;;22.50;50.20;;;;;;5037512;28;20029;-65
2023/10/05 06:19:36;;;;;;;1.75;0.90;;;22.50;50.20;;;;;;5041472;28;20033;-64
2023/10/05 06:22:05;;;;;;;1.50;0.98;;;22.60;50.30;;;;;;5041298;28;20071;-65
2023/10/05 06:24:32;;;;;;;2.28;1.00;;;22.50;50.30;;;;;;5024291;28;20037;-63
2023/10/05 06:27:02;;;;;;;2.17;1.02;;;22.50;50.30;;;;;;5023033;28;20025;-63
2023/10/05 06:29:28;;;;;;;2.55;1.08;;;22.50;50.30;;;;;;5042010;28;20028;-65
2023/10/05 06:31:55;;;;;;;2.58;1.15;;;22.50;50.30;;;;;;5024556;28;20037;-66
2023/10/05 06:34:22;;;;;;;3.92;1.25;;;22.50;50.40;;;;;;5042960;28;20424;-65
2023/10/05 06:36:48;;;;;;;2.92;1.50;;;22.50;50.40;;;;;;5049564;28;20067;-62
2023/10/05 06:39:14;;;;;;;2.03;1.00;;;22.50;50.40;;;;;;5041798;28;20029;-63
2023/10/05 06:41:41;;;;;;;2.50;1.10;;;22.50;50.40;;;;;;5043440;28;20383;-66
2023/10/05 06:44:07;;;;;;;2.20;1.00;;;22.50;50.40;;;;;;5020222;28;20077;-63
2023/10/05 06:46:34;;;;;;;3.28;1.30;;;22.50;50.50;;;;;;5020470;28;20416;-66
2023/10/05 06:49:01;;;;;;;3.00;1.15;;;22.50;50.40;;;;;;5042383;28;20040;-65
2023/10/05 06:51:28;;;;;;;2.05;1.15;;;22.60;50.50;;;;;;5008540;28;20024;-64
2023/10/05 06:53:55;;;;;;;2.60;1.13;;;22.50;50.40;;;;;;5047301;28;20427;-64
2023/10/05 06:56:21;;;;;;;2.65;1.10;;;22.50;50.50;;;;;;5044370;28;20029;-65
2023/10/05 06:58:48;;;;;;;2.40;1.10;;;22.60;50.50;;;;;;5045394;28;20040;-66
2023/10/05 07:01:20;;;;;;;2.90;1.15;;;22.50;50.40;;;;;;5049591;28;20037;-66
2023/10/05 07:03:53;;;;;;;2.97;1.13;;;22.60;50.40;;;;;;5030957;28;20103;-66
2023/10/05 07:06:22;;;;;;;2.30;1.17;;;22.50;50.40;;;;;;5047667;28;20077;-66
2023/10/05 07:08:52;;;;;;;2.08;1.13;;;22.50;50.40;;;;;;5040380;28;20171;-64
2023/10/05 07:11:19;;;;;;;2.35;0.90;;;22.50;50.40;;;;;;5047893;28;20021;-64
2023/10/05 07:13:46;;;;;;;2.17;1.00;;;22.50;50.30;;;;;;5047834;28;20093;-64
2023/10/05 07:16:13;;;;;;;2.10;1.10;;;22.50;50.30;;;;;;5042257;28;20029;-64
2023/10/05 07:18:42;;;;;;;2.88;1.13;;;22.60;50.40;;;;;;5043152;28;20029;-66
2023/10/05 07:21:08;;;;;;;2.53;1.30;;;22.50;50.30;;;;;;5045171;28;20041;-64
2023/10/05 07:23:39;;;;;;;4.15;1.30;;;22.50;50.30;;;;;;5044811;28;20055;-63
2023/10/05 07:26:06;;;;;;;2.85;1.25;;;22.60;50.40;;;;;;5041905;28;20036;-63
2023/10/05 07:28:33;;;;;;;2.72;1.30;;;22.60;50.30;;;;;;5044523;28;20044;-65
2023/10/05 07:30:59;;;;;;;2.85;1.13;;;22.60;50.30;;;;;;5043497;28;20074;-65
2023/10/05 07:33:26;;;;;;;1.90;1.10;;;22.60;50.30;;;;;;5043643;28;20047;-66
2023/10/05 07:35:56;;;;;;;2.72;1.20;;;22.60;50.30;;;;;;5042969;28;20468;-67
2023/10/05 07:38:28;;;;;;;4.97;1.60;;;22.60;50.30;;;;;;5022242;28;20048;-65
2023/10/05 07:40:55;;;;;;;2.63;1.38;;;22.60;50.30;;;;;;5045623;28;20021;-63
2023/10/05 07:43:21;;;;;;;2.95;1.33;;;22.60;50.30;;;;;;5025851;28;20039;-64
2023/10/05 07:45:48;;;;;;;2.80;1.33;;;22.60;50.30;;;;;;5021307;28;20128;-63
2023/10/05 07:48:14;;;;;;;2.75;1.58;;;22.60;50.30;;;;;;5041839;28;20037;-66
2023/10/05 07:50:40;;;;;;;3.03;1.45;;;22.60;50.30;;;;;;5040166;28;20048;-63
2023/10/05 07:53:06;;;;;;;2.13;0.95;;;22.60;50.30;;;;;;5044263;28;20039;-65
2023/10/05 07:55:32;;;;;;;2.47;1.27;;;22.60;50.30;;;;;;5029147;28;20312;-63
2023/10/05 07:57:57;;;;;;;2.67;1.40;;;22.60;50.30;;;;;;5048050;28;20029;-65
2023/10/05 08:00:23;;;;;;;3.13;1.30;;;22.60;50.30;;;;;;5016617;28;20041;-66
2023/10/05 08:02:49;;;;;;;2.58;1.48;;;22.60;50.30;;;;;;5048363;28;20080;-65
2023/10/05 08:05:15;;;;;;;2.42;1.40;;;22.60;50.30;;;;;;5047949;28;20025;-64
2023/10/05 08:07:44;;;;;;;2.35;1.30;;;22.60;50.30;;;;;;5041857;28;20025;-64
2023/10/05 08:10:18;;;;;;;3.95;1.23;;;22.60;50.30;;;;;;5045065;28;20481;-62
2023/10/05 08:12:45;;;;;;;2.10;1.20;;;22.60;50.30;;;;;;5048384;28;20112;-64
2023/10/05 08:15:18;;;;;;;2.47;1.17;;;22.60;50.30;;;;;;5047481;28;20044;-64
2023/10/05 08:17:45;;;;;;;2.40;1.17;;;22.70;50.40;;;;;;5026044;28;20029;-63
2023/10/05 08:20:11;;;;;;;1.95;1.10;;;22.70;50.30;;;;;;5046155;28;20436;-66
2023/10/05 08:22:38;;;;;;;3.00;1.25;;;22.70;50.40;;;;;;5048110;28;20048;-65
2023/10/05 08:25:11;;;;;;;3.47;1.33;;;22.70;50.30;;;;;;5047852;28;20113;-64
2023/10/05 08:27:44;;;;;;;3.03;1.13;;;22.70;50.30;;;;;;5045403;28;20047;-65
2023/10/05 08:30:13;;;;;;;2.08;0.90;;;22.60;50.30;;;;;;5022585;28;20029;-64
2023/10/05 08:32:39;;;;;;;2.25;1.10;;;22.70;50.30;;;;;;5046221;28;20025;-66
2023/10/05 08:35:12;;;;;;;3.40;1.40;;;22.70;50.30;;;;;;5047370;28;20052;-67
2023/10/05 08:37:42;;;;;;;1.83;1.00;;;22.70;50.30;;;;;;5046944;28;20033;-63
2023/10/05 08:40:37;;;;;;;2.45;1.40;;;22.70;50.50;;;;;;5025904;28;20029;-64
2023/10/05 08:43:13;;;;;;;1.90;1.35;;;22.70;50.30;;;;;;5045033;28;20440;-63
2023/10/05 08:45:52;;;;;;;3.15;1.40;;;22.70;50.30;;;;;;5047873;28;20125;-64
2023/10/05 08:48:37;;;;;;;2.50;1.20;;;22.70;50.30;;;;;;5045703;28;20432;-65
2023/10/05 08:51:11;;;;;;;3.75;1.55;;;22.70;50.30;;;;;;5046737;28;20457;-64
2023/10/05 08:53:50;;;;;;;3.42;1.30;;;22.80;50.40;;;;;;5047384;28;20036;-63
2023/10/05 08:56:17;;;;;;;2.63;1.33;;;22.70;50.30;;;;;;5016771;28;20029;-65
2023/10/05 08:58:47;;;;;;;2.78;1.10;;;22.70;50.30;;;;;;5043375;28;20067;-64
2023/10/05 09:01:31;;;;;;;2.10;1.10;;;22.80;50.40;;;;;;5046849;28;20396;-63
2023/10/05 09:04:01;;;;;;;3.50;1.42;;;22.80;50.40;;;;;;5046296;28;20090;-65
2023/10/05 09:06:30;;;;;;;2.63;1.40;;;22.80;50.40;;;;;;5045260;28;20033;-66
2023/10/05 09:11:32;;;;;;;1.98;1.20;;;22.80;50.40;;;;;;5046906;28;20436;-66
2023/10/05 09:14:13;;;;;;;3.05;1.30;;;22.80;50.40;;;;;;5047094;28;20151;-64
2023/10/05 09:16:44;;;;;;;4.13;1.48;;;22.80;50.40;;;;;;5043699;28;20033;-64
2023/10/05 09:19:23;;;;;;;2.72;1.20;;;22.80;50.40;;;;;;5044116;28;20029;-63
2023/10/05 09:22:10;;;;;;;3.22;1.65;;;22.80;50.40;;;;;;5042109;28;20204;-59
2023/10/05 09:24:37;;;;;;;3.17;1.27;;;22.80;50.40;;;;;;5043370;28;20375;-65
2023/10/05 09:27:16;;;;;;;2.38;1.23;;;22.80;50.50;;;;;;5044880;28;20145;-65
2023/10/05 09:29:43;;;;;;;3.72;1.27;;;22.80;50.50;;;;;;5047341;28;20138;-65
2023/10/05 09:32:23;;;;;;;2.42;1.20;;;22.90;50.60;;;;;;5046652;28;20097;-67
2023/10/05 09:34:51;;;;;;;2.60;1.13;;;22.90;50.60;;;;;;5026657;28;20106;-66
2023/10/05 09:37:23;;;;;;;2.00;1.00;;;22.90;50.60;;;;;;5045902;28;20103;-66
2023/10/05 09:39:49;;;;;;;3.03;1.05;;;22.90;50.60;;;;;;5044884;28;20151;-64
2023/10/05 09:42:17;;;;;;;3.17;1.30;;;22.90;50.50;;;;;;5047272;28;20021;-65
2023/10/05 09:44:51;;;;;;;2.90;1.40;;;22.90;50.50;;;;;;5020419;28;20036;-66
2023/10/05 09:47:25;;;;;;;2.42;1.15;;;22.90;50.50;;;;;;5027444;28;20070;-64
2023/10/05 09:49:57;;;;;;;4.38;1.55;;;22.90;50.50;;;;;;5042263;28;20104;-65
2023/10/05 09:52:24;;;;;;;4.88;1.30;;;22.90;50.50;;;;;;5027629;28;20470;-64
2023/10/05 09:54:52;;;;;;;2.80;1.35;;;22.90;50.50;;;;;;5028336;28;20041;-64
2023/10/05 09:57:18;;;;;;;3.83;1.50;;;22.90;50.50;;;;;;5047195;28;20430;-64
2023/10/05 09:59:48;;;;;;;2.15;0.90;;;22.90;50.50;;;;;;5044678;28;20409;-64
2023/10/05 10:02:16;;;;;;;3.25;1.10;;;22.90;50.50;;;;;;5045697;28;20029;-67
2023/10/05 10:04:46;;;;;;;2.88;1.27;;;22.90;50.40;;;;;;5049760;28;20057;-64
2023/10/05 10:07:22;;;;;;;2.85;1.25;;;22.90;50.40;;;;;;5047015;28;20395;-66
2023/10/05 10:09:54;;;;;;;2.70;1.20;;;23.00;50.50;;;;;;5048703;28;20063;-66
2023/10/05 10:12:33;;;;;;;2.45;1.23;;;22.90;50.40;;;;;;5049549;28;20044;-66
2023/10/05 10:15:00;;;;;;;1.75;1.00;;;22.90;50.40;;;;;;5048161;28;20044;-66
2023/10/05 10:17:33;;;;;;;2.70;1.27;;;23.00;50.50;;;;;;5046052;28;20108;-64
2023/10/05 10:20:35;;;;;;;2.95;1.15;;;22.90;50.40;;;;;;5036319;28;20419;-66
2023/10/05 10:22:55;;;;;;;3.17;1.10;;;22.90;50.40;;;;;;5051722;28;20772;-65
2023/10/05 10:25:38;;;;;;;2.78;0.90;;;22.90;50.40;;;;;;5026458;28;20041;-64
2023/10/05 10:28:16;;;;;;;2.88;1.27;;;22.90;50.40;;;;;;5031249;28;20056;-63
2023/10/05 10:31:13;;;;;;;2.08;1.10;;;23.00;50.50;;;;;;5027729;28;20060;-64
2023/10/05 10:33:40;;;;;;;2.83;1.27;;;23.00;50.40;;;;;;5045243;28;20048;-63
2023/10/05 10:36:18;;;;;;;2.92;1.45;;;22.90;50.40;;;;;;5050738;28;20052;-65
2023/10/05 10:38:48;;;;;;;2.53;1.25;;;23.00;50.50;;;;;;5049110;28;20041;-66
2023/10/05 10:41:16;;;;;;;3.47;1.23;;;23.00;50.50;;;;;;5028086;28;20026;-63
2023/10/05 10:43:52;;;;;;;2.35;1.05;;;23.00;50.50;;;;;;5045801;28;20122;-64
2023/10/05 10:46:30;;;;;;;3.60;1.35;;;23.00;50.50;;;;;;5045155;28;20017;-66
2023/10/05 10:48:59;;;;;;;4.03;0.93;;;23.00;50.50;;;;;;5007347;28;20029;-65
2023/10/05 10:51:32;;;;;;;2.97;1.33;;;23.00;50.50;;;;;;5048261;28;20040;-63
2023/10/05 10:54:14;;;;;;;3.28;1.20;;;23.00;50.50;;;;;;5053983;28;20033;-65
2023/10/05 10:56:44;;;;;;;2.85;1.20;;;23.00;50.60;;;;;;5049314;28;20044;-65
2023/10/05 10:59:13;;;;;;;2.90;1.27;;;23.00;50.50;;;;;;5044327;28;20039;-64
2023/10/05 11:01:42;;;;;;;2.78;1.25;;;23.00;50.60;;;;;;5042705;28;20036;-66
2023/10/05 11:04:25;;;;;;;3.30;1.25;;;23.00;50.60;;;;;;5043367;28;20025;-65
2023/10/05 11:06:58;;;;;;;1.80;1.10;;;23.00;50.60;;;;;;5025670;28;20083;-66
2023/10/05 11:09:35;;;;;;;4.10;1.37;;;23.00;50.60;;;;;;5023322;28;20025;-65
2023/10/05 11:12:11;;;;;;;2.33;1.20;;;23.10;50.80;;;;;;5043093;28;20106;-65
2023/10/05 11:14:40;;;;;;;3.35;1.30;;;23.10;50.80;;;;;;5031315;28;20045;-66
2023/10/05 11:17:23;;;;;;;2.92;1.05;;;23.10;50.80;;;;;;5028404;28;20073;-65
2023/10/05 11:19:49;;;;;;;2.50;1.10;;;23.10;50.80;;;;;;5049297;28;20115;-65
2023/10/05 11:22:23;;;;;;;2.70;1.20;;;23.10;50.80;;;;;;5040304;28;20053;-65
2023/10/05 11:25:14;;;;;;;2.53;1.30;;;23.10;50.80;;;;;;5040110;28;20357;-63
2023/10/05 11:27:55;;;;;;;2.88;1.13;;;23.10;50.80;;;;;;5030779;28;20107;-66
2023/10/05 11:30:22;;;;;;;2.53;1.30;;;23.10;50.80;;;;;;5022844;28;20077;-63
2023/10/05 11:32:54;;;;;;;2.63;1.20;;;23.10;50.80;;;;;;5037662;28;20033;-63
2023/10/05 11:35:28;;;;;;;3.72;1.38;;;23.10;50.70;;;;;;5045132;28;20053;-66
2023/10/05 11:38:03;;;;;;;2.70;1.17;;;23.10;50.70;;;;;;5043184;28;20029;-65
2023/10/05 11:40:31;;;;;;;3.10;1.17;;;23.10;50.70;;;;;;5048260;28;20041;-67
2023/10/05 11:42:57;;;;;;;1.75;1.10;;;23.10;50.60;;;;;;5048601;28;20103;-64
2023/10/05 11:45:23;;;;;;;2.15;1.00;;;23.10;50.60;;;;;;5024417;28;20029;-67
2023/10/05 11:47:54;;;;;;;2.88;1.08;;;23.10;50.60;;;;;;5031108;28;20356;-64
2023/10/05 11:50:35;;;;;;;4.00;1.50;;;23.20;50.70;;;;;;5048498;28;20290;-63
2023/10/05 11:53:10;;;;;;;4.10;1.42;;;23.20;50.70;;;;;;5045211;28;20033;-68
2023/10/05 11:55:36;;;;;;;2.28;1.13;;;23.20;50.60;;;;;;5043147;28;20087;-67
2023/10/05 11:58:02;;;;;;;3.03;1.40;;;23.20;50.60;;;;;;5045305;28;20047;-65
2023/10/05 12:00:31;;;;;;;4.05;1.30;;;23.20;50.60;;;;;;5046762;28;20033;-65
2023/10/05 12:02:57;;;;;;;4.25;1.52;;;23.20;50.60;;;;;;5031742;28;20439;-64
2023/10/05 12:05:25;;;;;;;3.63;1.60;;;23.20;50.60;;;;;;5052952;28;20093;-64
2023/10/05 12:07:51;;;;;;;3.05;1.58;;;23.20;50.60;;;;;;5023136;28;20401;-65
2023/10/05 12:10:17;;;;;;;3.45;1.30;;;23.20;50.60;;;;;;5025283;28;20104;-65
2023/10/05 12:12:50;;;;;;;4.72;1.42;;;23.30;50.70;;;;;;5049733;28;20046;-59
2023/10/05 12:15:17;;;;;;;2.67;1.20;;;23.20;50.70;;;;;;5042296;28;20041;-64
2023/10/05 12:17:49;;;;;;;3.17;1.45;;;23.30;50.80;;;;;;5045197;28;20041;-67
2023/10/05 12:20:15;;;;;;;2.85;1.15;;;23.30;50.90;;;;;;5032253;28;20108;-60
2023/10/05 12:22:42;;;;;;;3.13;1.30;;;23.30;50.90;;;;;;5047785;28;20025;-58
2023/10/05 12:25:09;;;;;;;4.10;1.33;;;23.30;50.90;;;;;;5048306;28;20029;-56
2023/10/05 12:27:35;;;;;;;3.03;1.40;;;23.30;51.00;;;;;;5030251;28;20389;-58
2023/10/05 12:30:10;;;;;;;2.38;1.33;;;23.30;51.10;;;;;;5051049;28;20391;-63
2023/10/05 12:32:40;;;;;;;2.55;1.35;;;23.30;51.10;;;;;;5045573;28;20096;-62
2023/10/05 12:35:13;;;;;;;4.55;1.80;;;23.30;51.00;;;;;;5033993;28;20468;-63
2023/10/05 12:37:41;;;;;;;2.38;0.90;;;23.30;51.00;;;;;;5049648;28;20100;-65
2023/10/05 12:40:26;;;;;;;3.38;1.33;;;23.30;51.00;;;;;;5032734;28;20128;-62
2023/10/05 12:42:52;;;;;;;3.00;1.23;;;23.40;51.10;;;;;;5032148;28;20099;-61
2023/10/05 12:45:22;;;;;;;4.28;1.33;;;23.30;51.00;;;;;;5032688;28;20108;-63
2023/10/05 12:47:54;;;;;;;2.55;1.15;;;23.30;51.10;;;;;;5027112;28;20317;-63
2023/10/05 12:50:30;;;;;;;3.35;1.65;;;23.30;51.10;;;;;;5037135;28;20036;-62
2023/10/05 12:52:58;;;;;;;3.38;1.45;;;23.40;51.20;;;;;;5027031;28;20052;-63
2023/10/05 12:55:32;;;;;;;2.80;1.27;;;23.40;51.30;;;;;;5040508;28;20409;-64
2023/10/05 12:57:58;;;;;;;5.03;1.25;;;23.40;51.30;;;;;;5043997;28;20029;-63
2023/10/05 13:00:31;;;;;;;3.67;1.08;;;23.40;51.40;;;;;;5043556;28;20029;-65
2023/10/05 13:03:00;;;;;;;3.40;1.45;;;23.40;51.40;;;;;;5026971;28;20033;-62
2023/10/05 13:05:43;;;;;;;3.05;1.20;;;23.40;51.40;;;;;;5027368;28;20029;-64
2023/10/05 13:08:11;;;;;;;4.72;1.15;;;23.40;51.40;;;;;;5030306;28;20047;-64
2023/10/05 13:10:38;;;;;;;2.90;1.30;;;23.40;51.50;;;;;;5051528;28;20063;-63
2023/10/05 13:13:10;;;;;;;3.65;1.17;;;23.40;51.40;;;;;;5051367;28;20060;-63
2023/10/05 13:15:38;;;;;;;3.22;1.15;;;23.40;51.30;;;;;;5051869;28;20075;-63
2023/10/05 13:18:20;;;;;;;2.67;1.10;;;23.40;51.20;;;;;;5048685;28;20112;-63
2023/10/05 13:20:51;;;;;;;2.70;1.20;;;23.40;51.20;;;;;;5051924;28;20112;-62
2023/10/05 13:23:21;;;;;;;3.40;1.67;;;23.40;51.10;;;;;;5034479;28;20488;-63
2023/10/05 13:25:48;;;;;;;3.50;1.42;;;23.40;51.00;;;;;;5049660;28;20033;-63
2023/10/05 13:28:16;;;;;;;3.42;1.50;;;23.40;50.90;;;;;;5050850;28;20044;-63
2023/10/05 13:30:50;;;;;;;4.03;1.02;;;23.40;50.90;;;;;;5032494;28;20024;-67
2023/10/05 13:33:39;;;;;;;;;;;23.40;50.80;;;;;;5034174;28;20372;-63
2023/10/05 13:36:11;;;;;;;2.10;0.93;;;23.40;50.80;;;;;;5052540;28;19917;-63
2023/10/05 13:38:39;;;;;;;3.95;1.10;;;23.40;50.70;;;;;;5038464;28;20037;-64
2023/10/05 13:43:34;;;;;;;2.60;1.35;;;23.40;50.60;;;;;;5055717;28;20047;-66